sensor_id;sensor_type;location;lat;lon;timestamp;pressure;altitude;pressure_sealevel;temperature;humidity
4830;BME280;2429;52.586;14.322;2024-03-08T00:00:19;102439.59;;;0.24;100.00
4830;BME280;2429;52.586;14.322;2024-03-08T00:05:42;102447.22;;;0.17;100.00
4830;BME280;2429;52.586;14.322;2024-03-08T00:10:47;102438.53;;;0.11;100.00
4830;BME280;2429;52.586;14.322;2024-03-08T00:15:51;102446.28;;;0.12;100.00
4830;BME280;2429;52.586;14.322;2024-03-08T00:20:54;102435.06;;;0.10;100.00
4830;BME280;2429;52.586;14.322;2024-03-08T00:25:59;102433.16;;;-0.02;100.00
4830;BME280;2429;52.586;14.322;2024-03-08T00:31:03;102429.41;;;-0.21;100.00
4830;BME280;2429;52.586;14.322;2024-03-08T00:36:06;102434.06;;;-0.47;100.00
4830;BME280;2429;52.586;14.322;2024-03-08T00:41:11;102425.63;;;-0.40;100.00
4830;BME280;2429;52.586;14.322;2024-03-08T00:46:14;102426.38;;;-0.45;100.00
4830;BME280;2429;52.586;14.322;2024-03-08T00:51:18;102426.09;;;-0.61;100.00
4830;BME280;2429;52.586;14.322;2024-03-08T00:56:22;102420.69;;;-0.75;100.00
4830;BME280;2429;52.586;14.322;2024-03-08T01:01:27;102417.00;;;-0.86;100.00
4830;BME280;2429;52.586;14.322;2024-03-08T01:06:30;102412.47;;;-0.98;100.00
4830;BME280;2429;52.586;14.322;2024-03-08T01:11:35;102410.50;;;-0.68;100.00
4830;BME280;2429;52.586;14.322;2024-03-08T01:16:38;102413.50;;;-0.45;100.00
4830;BME280;2429;52.586;14.322;2024-03-08T01:21:41;102408.31;;;-0.47;100.00
4830;BME280;2429;52.586;14.322;2024-03-08T01:26:46;102406.56;;;-0.48;100.00
4830;BME280;2429;52.586;14.322;2024-03-08T01:31:49;102405.44;;;-0.64;100.00
4830;BME280;2429;52.586;14.322;2024-03-08T01:36:54;102399.41;;;-0.63;100.00
4830;BME280;2429;52.586;14.322;2024-03-08T01:41:59;102397.78;;;-0.59;100.00
4830;BME280;2429;52.586;14.322;2024-03-08T01:47:03;102394.56;;;-0.49;100.00
4830;BME280;2429;52.586;14.322;2024-03-08T01:52:07;102384.19;;;-0.52;100.00
4830;BME280;2429;52.586;14.322;2024-03-08T01:57:12;102377.25;;;-1.00;100.00
4830;BME280;2429;52.586;14.322;2024-03-08T02:02:17;102375.56;;;-1.00;100.00
4830;BME280;2429;52.586;14.322;2024-03-08T02:07:21;102374.72;;;-0.97;100.00
4830;BME280;2429;52.586;14.322;2024-03-08T02:12:26;102372.06;;;-1.02;100.00
4830;BME280;2429;52.586;14.322;2024-03-08T02:17:30;102363.88;;;-1.25;100.00
4830;BME280;2429;52.586;14.322;2024-03-08T02:22:35;102364.56;;;-1.34;100.00
4830;BME280;2429;52.586;14.322;2024-03-08T02:27:39;102358.44;;;-1.39;100.00
4830;BME280;2429;52.586;14.322;2024-03-08T02:32:42;102353.19;;;-1.02;100.00
4830;BME280;2429;52.586;14.322;2024-03-08T02:37:47;102359.97;;;-1.06;100.00
4830;BME280;2429;52.586;14.322;2024-03-08T02:42:50;102351.78;;;-1.29;100.00
4830;BME280;2429;52.586;14.322;2024-03-08T02:47:53;102349.78;;;-1.43;100.00
4830;BME280;2429;52.586;14.322;2024-03-08T02:52:59;102348.47;;;-1.63;100.00
4830;BME280;2429;52.586;14.322;2024-03-08T02:58:02;102339.59;;;-1.38;100.00
4830;BME280;2429;52.586;14.322;2024-03-08T03:03:06;102336.47;;;-1.23;100.00
4830;BME280;2429;52.586;14.322;2024-03-08T03:08:11;102334.19;;;-1.52;100.00
4830;BME280;2429;52.586;14.322;2024-03-08T03:13:15;102336.63;;;-1.58;100.00
4830;BME280;2429;52.586;14.322;2024-03-08T03:18:18;102332.47;;;-1.51;100.00
4830;BME280;2429;52.586;14.322;2024-03-08T03:23:25;102335.75;;;-1.57;100.00
4830;BME280;2429;52.586;14.322;2024-03-08T03:28:28;102330.34;;;-1.69;100.00
4830;BME280;2429;52.586;14.322;2024-03-08T03:33:31;102332.47;;;-1.51;100.00
4830;BME280;2429;52.586;14.322;2024-03-08T03:38:37;102334.75;;;-1.24;100.00
4830;BME280;2429;52.586;14.322;2024-03-08T03:43:42;102332.66;;;-1.42;100.00
4830;BME280;2429;52.586;14.322;2024-03-08T03:48:45;102327.84;;;-1.27;100.00
4830;BME280;2429;52.586;14.322;2024-03-08T03:53:50;102329.66;;;-1.21;100.00
4830;BME280;2429;52.586;14.322;2024-03-08T03:58:53;102331.31;;;-1.25;100.00
4830;BME280;2429;52.586;14.322;2024-03-08T04:03:56;102326.25;;;-1.20;100.00
4830;BME280;2429;52.586;14.322;2024-03-08T04:09:01;102328.47;;;-1.38;100.00
4830;BME280;2429;52.586;14.322;2024-03-08T04:14:05;102327.63;;;-1.36;100.00
4830;BME280;2429;52.586;14.322;2024-03-08T04:19:08;102327.38;;;-1.48;100.00
4830;BME280;2429;52.586;14.322;2024-03-08T04:24:13;102326.91;;;-1.71;100.00
4830;BME280;2429;52.586;14.322;2024-03-08T04:29:17;102320.91;;;-2.08;100.00
4830;BME280;2429;52.586;14.322;2024-03-08T04:34:20;102323.94;;;-1.87;100.00
4830;BME280;2429;52.586;14.322;2024-03-08T04:39:25;102316.75;;;-2.02;100.00
4830;BME280;2429;52.586;14.322;2024-03-08T04:44:30;102311.00;;;-1.91;100.00
4830;BME280;2429;52.586;14.322;2024-03-08T04:49:33;102317.44;;;-1.72;100.00
4830;BME280;2429;52.586;14.322;2024-03-08T04:54:38;102309.81;;;-1.68;100.00
4830;BME280;2429;52.586;14.322;2024-03-08T04:59:41;102317.00;;;-1.92;100.00
4830;BME280;2429;52.586;14.322;2024-03-08T05:04:44;102320.66;;;-1.81;100.00
4830;BME280;2429;52.586;14.322;2024-03-08T05:09:49;102316.94;;;-1.96;100.00
4830;BME280;2429;52.586;14.322;2024-03-08T05:14:54;102320.03;;;-2.09;100.00
4830;BME280;2429;52.586;14.322;2024-03-08T05:19:57;102308.97;;;-2.05;100.00
4830;BME280;2429;52.586;14.322;2024-03-08T05:25:02;102313.13;;;-2.11;100.00
4830;BME280;2429;52.586;14.322;2024-03-08T05:30:06;102307.44;;;-1.98;100.00
4830;BME280;2429;52.586;14.322;2024-03-08T05:35:10;102304.03;;;-1.97;100.00
4830;BME280;2429;52.586;14.322;2024-03-08T05:40:15;102305.75;;;-2.34;100.00
4830;BME280;2429;52.586;14.322;2024-03-08T05:45:22;102303.03;;;-2.04;100.00
4830;BME280;2429;52.586;14.322;2024-03-08T05:50:27;102300.41;;;-2.05;100.00
4830;BME280;2429;52.586;14.322;2024-03-08T05:55:31;102308.78;;;-2.14;100.00
4830;BME280;2429;52.586;14.322;2024-03-08T06:00:37;102297.31;;;-2.27;100.00
4830;BME280;2429;52.586;14.322;2024-03-08T06:05:40;102309.44;;;-2.21;100.00
4830;BME280;2429;52.586;14.322;2024-03-08T06:10:45;102311.97;;;-2.23;100.00
4830;BME280;2429;52.586;14.322;2024-03-08T06:15:51;102307.84;;;-2.18;100.00
4830;BME280;2429;52.586;14.322;2024-03-08T06:20:54;102310.66;;;-2.07;100.00
4830;BME280;2429;52.586;14.322;2024-03-08T06:25:59;102314.69;;;-1.80;100.00
4830;BME280;2429;52.586;14.322;2024-03-08T06:31:03;102308.97;;;-1.68;100.00
4830;BME280;2429;52.586;14.322;2024-03-08T06:36:06;102322.00;;;-1.19;100.00
4830;BME280;2429;52.586;14.322;2024-03-08T06:41:11;102312.34;;;-0.85;100.00
4830;BME280;2429;52.586;14.322;2024-03-08T06:46:17;102314.22;;;-0.77;100.00
4830;BME280;2429;52.586;14.322;2024-03-08T06:51:22;102310.75;;;-0.30;100.00
4830;BME280;2429;52.586;14.322;2024-03-08T06:56:27;102309.63;;;0.09;100.00
4830;BME280;2429;52.586;14.322;2024-03-08T07:01:31;102313.66;;;0.53;100.00
4830;BME280;2429;52.586;14.322;2024-03-08T07:06:36;102313.22;;;0.86;100.00
4830;BME280;2429;52.586;14.322;2024-03-08T07:11:41;102313.94;;;0.75;100.00
4830;BME280;2429;52.586;14.322;2024-03-08T07:16:46;102315.78;;;0.85;100.00
4830;BME280;2429;52.586;14.322;2024-03-08T07:21:49;102315.91;;;0.96;100.00
4830;BME280;2429;52.586;14.322;2024-03-08T07:26:54;102324.56;;;0.99;100.00
4830;BME280;2429;52.586;14.322;2024-03-08T07:31:57;102321.09;;;0.97;100.00
4830;BME280;2429;52.586;14.322;2024-03-08T07:37:14;102321.97;;;1.01;100.00
4830;BME280;2429;52.586;14.322;2024-03-08T07:42:18;102318.63;;;1.10;100.00
4830;BME280;2429;52.586;14.322;2024-03-08T07:47:23;102315.13;;;1.04;100.00
4830;BME280;2429;52.586;14.322;2024-03-08T07:52:28;102309.22;;;0.43;100.00
4830;BME280;2429;52.586;14.322;2024-03-08T07:57:33;102310.63;;;0.86;100.00
4830;BME280;2429;52.586;14.322;2024-03-08T08:02:36;102305.09;;;1.31;100.00
4830;BME280;2429;52.586;14.322;2024-03-08T08:07:44;102294.00;;;1.41;100.00
4830;BME280;2429;52.586;14.322;2024-03-08T08:12:52;102285.56;;;1.65;100.00
4830;BME280;2429;52.586;14.322;2024-03-08T08:17:55;102285.75;;;1.87;100.00
4830;BME280;2429;52.586;14.322;2024-03-08T08:22:58;102276.16;;;1.69;100.00
4830;BME280;2429;52.586;14.322;2024-03-08T08:28:03;102281.53;;;2.03;100.00
4830;BME280;2429;52.586;14.322;2024-03-08T08:33:07;102274.91;;;2.54;100.00
4830;BME280;2429;52.586;14.322;2024-03-08T08:38:10;102267.31;;;3.07;100.00
4830;BME280;2429;52.586;14.322;2024-03-08T08:43:16;102260.44;;;3.24;100.00
4830;BME280;2429;52.586;14.322;2024-03-08T08:48:20;102261.25;;;3.82;100.00
4830;BME280;2429;52.586;14.322;2024-03-08T08:53:23;102246.53;;;4.04;100.00
4830;BME280;2429;52.586;14.322;2024-03-08T08:58:27;102243.88;;;4.27;100.00
4830;BME280;2429;52.586;14.322;2024-03-08T09:03:31;102235.94;;;4.67;100.00
4830;BME280;2429;52.586;14.322;2024-03-08T09:08:36;102236.44;;;5.20;100.00
4830;BME280;2429;52.586;14.322;2024-03-08T09:13:44;102231.19;;;5.28;100.00
4830;BME280;2429;52.586;14.322;2024-03-08T09:18:48;102216.47;;;5.30;100.00
4830;BME280;2429;52.586;14.322;2024-03-08T09:23:51;102208.34;;;5.61;100.00
4830;BME280;2429;52.586;14.322;2024-03-08T09:28:55;102209.69;;;6.05;100.00
4830;BME280;2429;52.586;14.322;2024-03-08T09:33:58;102205.69;;;6.48;100.00
4830;BME280;2429;52.586;14.322;2024-03-08T09:39:02;102201.53;;;6.34;100.00
4830;BME280;2429;52.586;14.322;2024-03-08T09:44:06;102188.56;;;6.28;100.00
4830;BME280;2429;52.586;14.322;2024-03-08T09:49:11;102183.81;;;6.60;100.00
4830;BME280;2429;52.586;14.322;2024-03-08T09:54:14;102176.66;;;6.74;100.00
4830;BME280;2429;52.586;14.322;2024-03-08T09:59:26;102164.22;;;6.93;100.00
4830;BME280;2429;52.586;14.322;2024-03-08T10:04:49;102160.59;;;7.03;100.00
4830;BME280;2429;52.586;14.322;2024-03-08T10:09:55;102149.09;;;7.15;100.00
4830;BME280;2429;52.586;14.322;2024-03-08T10:15:00;102142.38;;;7.02;100.00
4830;BME280;2429;52.586;14.322;2024-03-08T10:20:03;102129.81;;;7.26;100.00
4830;BME280;2429;52.586;14.322;2024-03-08T10:25:17;102131.72;;;7.14;100.00
4830;BME280;2429;52.586;14.322;2024-03-08T10:30:22;102133.00;;;7.40;96.40
4830;BME280;2429;52.586;14.322;2024-03-08T10:35:26;102121.41;;;7.55;100.00
4830;BME280;2429;52.586;14.322;2024-03-08T10:40:29;102120.72;;;7.47;94.48
4830;BME280;2429;52.586;14.322;2024-03-08T10:45:36;102119.34;;;7.27;88.27
4830;BME280;2429;52.586;14.322;2024-03-08T10:50:40;102115.56;;;6.94;96.29
4830;BME280;2429;52.586;14.322;2024-03-08T10:55:47;102108.47;;;7.02;96.62
4830;BME280;2429;52.586;14.322;2024-03-08T11:00:57;102101.56;;;7.48;89.20
4830;BME280;2429;52.586;14.322;2024-03-08T11:06:01;102109.38;;;7.48;97.87
4830;BME280;2429;52.586;14.322;2024-03-08T11:11:04;102095.28;;;7.11;92.99
4830;BME280;2429;52.586;14.322;2024-03-08T11:16:09;102083.31;;;6.99;96.43
4830;BME280;2429;52.586;14.322;2024-03-08T11:21:13;102080.28;;;7.22;99.19
4830;BME280;2429;52.586;14.322;2024-03-08T11:26:19;102078.50;;;7.26;96.36
4830;BME280;2429;52.586;14.322;2024-03-08T11:31:25;102074.25;;;7.20;97.63
4830;BME280;2429;52.586;14.322;2024-03-08T11:36:34;102067.44;;;7.13;98.84
4830;BME280;2429;52.586;14.322;2024-03-08T11:41:38;102071.50;;;7.28;100.00
4830;BME280;2429;52.586;14.322;2024-03-08T11:46:44;102046.81;;;7.01;100.00
4830;BME280;2429;52.586;14.322;2024-03-08T11:51:52;102034.03;;;7.34;96.67
4830;BME280;2429;52.586;14.322;2024-03-08T11:56:55;102034.13;;;7.29;90.79
4830;BME280;2429;52.586;14.322;2024-03-08T12:02:05;102026.09;;;6.95;98.45
4830;BME280;2429;52.586;14.322;2024-03-08T12:07:10;102020.38;;;7.21;93.87
4830;BME280;2429;52.586;14.322;2024-03-08T12:12:14;102017.72;;;7.24;91.51
4830;BME280;2429;52.586;14.322;2024-03-08T12:17:19;102009.53;;;7.43;89.75
4830;BME280;2429;52.586;14.322;2024-03-08T12:22:25;102010.94;;;7.15;93.64
4830;BME280;2429;52.586;14.322;2024-03-08T12:27:28;101990.00;;;7.20;81.12
4830;BME280;2429;52.586;14.322;2024-03-08T12:32:32;101987.28;;;7.24;87.58
4830;BME280;2429;52.586;14.322;2024-03-08T12:37:36;101982.78;;;7.31;74.33
4830;BME280;2429;52.586;14.322;2024-03-08T12:42:40;101977.44;;;7.39;79.61
4830;BME280;2429;52.586;14.322;2024-03-08T12:47:45;101971.78;;;7.59;84.20
4830;BME280;2429;52.586;14.322;2024-03-08T12:52:48;101958.53;;;7.68;75.62
4830;BME280;2429;52.586;14.322;2024-03-08T12:57:55;101955.34;;;7.57;71.60
4830;BME280;2429;52.586;14.322;2024-03-08T13:02:59;101950.44;;;7.41;69.42
4830;BME280;2429;52.586;14.322;2024-03-08T13:08:04;101936.22;;;7.55;74.34
4830;BME280;2429;52.586;14.322;2024-03-08T13:13:07;101934.50;;;7.55;66.03
4830;BME280;2429;52.586;14.322;2024-03-08T13:18:13;101926.88;;;7.45;67.38
4830;BME280;2429;52.586;14.322;2024-03-08T13:23:18;101930.06;;;7.59;68.14
4830;BME280;2429;52.586;14.322;2024-03-08T13:28:21;101915.41;;;7.53;63.87
4830;BME280;2429;52.586;14.322;2024-03-08T13:33:31;101915.16;;;7.64;62.11
4830;BME280;2429;52.586;14.322;2024-03-08T13:38:37;101903.75;;;7.68;59.70
4830;BME280;2429;52.586;14.322;2024-03-08T13:43:40;101896.78;;;7.70;58.83
4830;BME280;2429;52.586;14.322;2024-03-08T13:48:45;101895.19;;;7.63;58.18
4830;BME280;2429;52.586;14.322;2024-03-08T13:53:49;101884.00;;;7.58;59.19
4830;BME280;2429;52.586;14.322;2024-03-08T13:58:52;101876.19;;;7.56;57.37
4830;BME280;2429;52.586;14.322;2024-03-08T14:03:59;101876.66;;;7.74;54.70
4830;BME280;2429;52.586;14.322;2024-03-08T14:09:03;101863.28;;;7.88;57.05
4830;BME280;2429;52.586;14.322;2024-03-08T14:14:06;101866.88;;;7.84;52.13
4830;BME280;2429;52.586;14.322;2024-03-08T14:19:12;101855.72;;;7.77;49.94
4830;BME280;2429;52.586;14.322;2024-03-08T14:24:17;101851.28;;;7.81;50.85
4830;BME280;2429;52.586;14.322;2024-03-08T14:29:20;101841.41;;;7.93;50.03
4830;BME280;2429;52.586;14.322;2024-03-08T14:34:25;101838.19;;;7.84;49.16
4830;BME280;2429;52.586;14.322;2024-03-08T14:39:29;101837.41;;;7.79;48.87
4830;BME280;2429;52.586;14.322;2024-03-08T14:44:32;101818.19;;;7.83;48.38
4830;BME280;2429;52.586;14.322;2024-03-08T14:49:37;101813.84;;;7.82;48.56
4830;BME280;2429;52.586;14.322;2024-03-08T14:54:40;101808.56;;;7.85;49.74
4830;BME280;2429;52.586;14.322;2024-03-08T14:59:45;101807.00;;;7.77;47.85
4830;BME280;2429;52.586;14.322;2024-03-08T15:04:49;101798.47;;;7.71;47.02
4830;BME280;2429;52.586;14.322;2024-03-08T15:10:00;101795.06;;;7.67;47.42
4830;BME280;2429;52.586;14.322;2024-03-08T15:15:03;101796.84;;;7.67;48.58
4830;BME280;2429;52.586;14.322;2024-03-08T15:20:11;101789.09;;;7.64;49.29
4830;BME280;2429;52.586;14.322;2024-03-08T15:25:18;101775.16;;;7.65;48.22
4830;BME280;2429;52.586;14.322;2024-03-08T15:30:22;101776.81;;;7.67;49.18
4830;BME280;2429;52.586;14.322;2024-03-08T15:35:29;101773.63;;;7.56;50.74
4830;BME280;2429;52.586;14.322;2024-03-08T15:40:34;101771.03;;;7.56;49.21
4830;BME280;2429;52.586;14.322;2024-03-08T15:45:37;101772.88;;;7.51;51.57
4830;BME280;2429;52.586;14.322;2024-03-08T15:50:42;101764.47;;;7.39;53.86
4830;BME280;2429;52.586;14.322;2024-03-08T15:55:45;101758.69;;;7.27;64.22
4830;BME280;2429;52.586;14.322;2024-03-08T16:00:49;101760.53;;;7.23;67.48
4830;BME280;2429;52.586;14.322;2024-03-08T16:05:56;101759.06;;;7.11;72.79
4830;BME280;2429;52.586;14.322;2024-03-08T16:10:59;101753.00;;;7.11;84.43
4830;BME280;2429;52.586;14.322;2024-03-08T16:16:08;101757.38;;;7.09;79.13
4830;BME280;2429;52.586;14.322;2024-03-08T16:21:12;101758.59;;;6.92;88.35
4830;BME280;2429;52.586;14.322;2024-03-08T16:26:16;101756.91;;;6.89;90.05
4830;BME280;2429;52.586;14.322;2024-03-08T16:31:20;101753.09;;;6.65;95.12
4830;BME280;2429;52.586;14.322;2024-03-08T16:36:24;101752.47;;;6.56;99.20
4830;BME280;2429;52.586;14.322;2024-03-08T16:41:29;101746.50;;;6.49;100.00
4830;BME280;2429;52.586;14.322;2024-03-08T16:46:32;101745.75;;;6.44;100.00
4830;BME280;2429;52.586;14.322;2024-03-08T16:51:41;101752.06;;;6.32;100.00
4830;BME280;2429;52.586;14.322;2024-03-08T16:56:44;101748.81;;;6.21;100.00
4830;BME280;2429;52.586;14.322;2024-03-08T17:01:49;101748.09;;;6.14;100.00
4830;BME280;2429;52.586;14.322;2024-03-08T17:06:53;101756.16;;;5.98;100.00
4830;BME280;2429;52.586;14.322;2024-03-08T17:12:00;101751.22;;;5.83;100.00
4830;BME280;2429;52.586;14.322;2024-03-08T17:17:06;101746.22;;;5.72;100.00
4830;BME280;2429;52.586;14.322;2024-03-08T19:36:22;101716.59;;;3.03;100.00
4830;BME280;2429;52.586;14.322;2024-03-08T19:41:26;101723.47;;;3.08;100.00
4830;BME280;2429;52.586;14.322;2024-03-08T19:46:30;101707.94;;;3.05;100.00
4830;BME280;2429;52.586;14.322;2024-03-08T19:51:44;101714.88;;;2.98;100.00
4830;BME280;2429;52.586;14.322;2024-03-08T19:56:48;101715.03;;;2.77;100.00
4830;BME280;2429;52.586;14.322;2024-03-08T20:01:51;101704.66;;;2.81;100.00
4830;BME280;2429;52.586;14.322;2024-03-08T20:06:56;101705.44;;;2.94;100.00
4830;BME280;2429;52.586;14.322;2024-03-08T20:11:59;101702.69;;;3.14;100.00
4830;BME280;2429;52.586;14.322;2024-03-08T20:17:02;101700.13;;;3.13;100.00
4830;BME280;2429;52.586;14.322;2024-03-08T20:22:07;101701.84;;;3.14;100.00
4830;BME280;2429;52.586;14.322;2024-03-08T20:27:10;101694.09;;;3.12;100.00
4830;BME280;2429;52.586;14.322;2024-03-08T20:32:14;101687.25;;;3.05;100.00
4830;BME280;2429;52.586;14.322;2024-03-08T20:37:20;101680.34;;;3.03;100.00
4830;BME280;2429;52.586;14.322;2024-03-08T20:42:24;101673.47;;;2.97;100.00
4830;BME280;2429;52.586;14.322;2024-03-08T20:47:27;101672.63;;;2.98;100.00
4830;BME280;2429;52.586;14.322;2024-03-08T20:52:32;101661.38;;;3.02;100.00
4830;BME280;2429;52.586;14.322;2024-03-08T20:57:38;101657.09;;;2.95;100.00
4830;BME280;2429;52.586;14.322;2024-03-08T21:02:42;101651.13;;;2.90;100.00
4830;BME280;2429;52.586;14.322;2024-03-08T21:07:47;101639.97;;;2.80;100.00
4830;BME280;2429;52.586;14.322;2024-03-08T21:12:50;101634.81;;;2.77;100.00
4830;BME280;2429;52.586;14.322;2024-03-08T21:17:56;101630.69;;;2.50;100.00
4830;BME280;2429;52.586;14.322;2024-03-08T21:23:01;101627.28;;;2.38;100.00
4830;BME280;2429;52.586;14.322;2024-03-08T21:28:06;101634.06;;;2.59;100.00
4830;BME280;2429;52.586;14.322;2024-03-08T21:33:09;101625.38;;;2.67;100.00
4830;BME280;2429;52.586;14.322;2024-03-08T21:38:15;101618.53;;;2.58;100.00
4830;BME280;2429;52.586;14.322;2024-03-08T21:43:18;101620.56;;;2.05;100.00
4830;BME280;2429;52.586;14.322;2024-03-08T21:48:22;101607.69;;;1.99;100.00
4830;BME280;2429;52.586;14.322;2024-03-08T21:53:26;101613.66;;;2.04;100.00
4830;BME280;2429;52.586;14.322;2024-03-08T21:58:36;101604.06;;;2.31;100.00
4830;BME280;2429;52.586;14.322;2024-03-08T22:03:42;101594.53;;;2.33;100.00
4830;BME280;2429;52.586;14.322;2024-03-08T22:08:46;101597.13;;;2.33;100.00
4830;BME280;2429;52.586;14.322;2024-03-08T22:13:50;101596.38;;;2.17;100.00
4830;BME280;2429;52.586;14.322;2024-03-08T22:18:53;101591.38;;;1.80;100.00
4830;BME280;2429;52.586;14.322;2024-03-08T22:23:58;101589.69;;;1.66;100.00
4830;BME280;2429;52.586;14.322;2024-03-08T22:29:01;101584.56;;;1.45;100.00
4830;BME280;2429;52.586;14.322;2024-03-08T22:34:05;101576.84;;;1.43;100.00
4830;BME280;2429;52.586;14.322;2024-03-08T22:39:09;101579.44;;;1.51;100.00
4830;BME280;2429;52.586;14.322;2024-03-08T22:44:13;101575.97;;;1.46;100.00
4830;BME280;2429;52.586;14.322;2024-03-08T22:49:16;101576.88;;;1.31;100.00
4830;BME280;2429;52.586;14.322;2024-03-08T22:54:21;101573.47;;;1.22;100.00
4830;BME280;2429;52.586;14.322;2024-03-08T22:59:27;101574.31;;;1.17;100.00
4830;BME280;2429;52.586;14.322;2024-03-08T23:04:30;101573.44;;;1.16;100.00
4830;BME280;2429;52.586;14.322;2024-03-08T23:09:37;101557.13;;;1.14;100.00
4830;BME280;2429;52.586;14.322;2024-03-08T23:14:40;101562.25;;;1.25;100.00
4830;BME280;2429;52.586;14.322;2024-03-08T23:19:44;101553.59;;;1.46;100.00
4830;BME280;2429;52.586;14.322;2024-03-08T23:24:50;101554.50;;;1.39;100.00
4830;BME280;2429;52.586;14.322;2024-03-08T23:29:53;101548.47;;;1.26;100.00
4830;BME280;2429;52.586;14.322;2024-03-08T23:34:58;101553.69;;;1.15;100.00
4830;BME280;2429;52.586;14.322;2024-03-08T23:40:03;101547.66;;;1.01;100.00
4830;BME280;2429;52.586;14.322;2024-03-08T23:45:10;101539.06;;;0.83;100.00
4830;BME280;2429;52.586;14.322;2024-03-08T23:50:16;101543.41;;;0.70;100.00
4830;BME280;2429;52.586;14.322;2024-03-08T23:55:22;101525.31;;;0.87;100.00
